« Back
NWS Peachtree City, Ga » Text Product » AHN Terminal Aerodrome Forecast


Printer-friendly Version
Current Version              Previous Versions:   1  2  3  4  5  6  7  8  9  

Terminal Aerodrome Forecast

911
FTAK31 PAJN 200500
TAFAHN
TAF
PAHN 200538Z 2006/2106 30012KT P6SM BKN080
     FM200900 30012KT P6SM VCSH BKN060
     FM201200 30012KT 5SM -SN SCT030 OVC050
     FM201700 30012KT P6SM VCSH OVC050
     FM210200 30012KT 5SM -SN SCT020 OVC040
      AMD LTD TO CLD VIS AND WIND=

USA.gov is the U.S. government's official web portal to all federal, state and local government web resources and services.